createdAt,value
2018-05-29T00:02:26.117Z,25.50
2018-05-29T00:04:53.679Z,25.48
2018-05-29T00:07:21.194Z,25.48
2018-05-29T00:09:48.770Z,25.42
2018-05-29T00:12:16.368Z,25.40
2018-05-29T00:14:44.183Z,25.40
2018-05-29T00:17:11.690Z,25.38
2018-05-29T00:19:39.315Z,25.37
2018-05-29T00:22:06.835Z,25.31
2018-05-29T00:24:34.397Z,25.28
2018-05-29T00:27:02.061Z,25.24
2018-05-29T00:29:29.581Z,25.21
2018-05-29T00:31:57.105Z,25.20
2018-05-29T00:34:24.645Z,25.15
2018-05-29T00:36:52.192Z,25.12
2018-05-29T00:39:19.737Z,25.06
2018-05-29T00:41:47.361Z,25.04
2018-05-29T00:44:14.910Z,25.02
2018-05-29T00:46:42.452Z,24.98
2018-05-29T00:49:10.038Z,24.93
2018-05-29T00:51:37.604Z,24.90
2018-05-29T00:54:05.112Z,24.86
2018-05-29T00:56:32.672Z,24.82
2018-05-29T00:59:00.226Z,24.79
2018-05-29T01:01:27.737Z,24.78
2018-05-29T01:03:55.281Z,24.77
2018-05-29T01:06:22.803Z,24.74
2018-05-29T01:08:50.317Z,24.71
2018-05-29T01:11:17.889Z,24.63
2018-05-29T01:13:45.413Z,24.58
2018-05-29T01:16:12.952Z,24.57
2018-05-29T01:18:40.514Z,24.54
2018-05-29T01:21:08.034Z,24.50
2018-05-29T01:23:35.552Z,24.47
2018-05-29T01:26:03.314Z,24.44
2018-05-29T01:28:30.818Z,24.41
2018-05-29T01:30:58.406Z,24.39
2018-05-29T01:33:25.971Z,24.39
2018-05-29T01:35:53.501Z,24.36
2018-05-29T01:38:21.165Z,24.36
2018-05-29T01:40:48.709Z,24.33
2018-05-29T01:43:16.234Z,24.29
2018-05-29T01:45:43.980Z,24.23
2018-05-29T01:48:11.531Z,24.21
2018-05-29T01:50:39.363Z,24.22
2018-05-29T01:53:06.903Z,24.18
2018-05-29T01:55:34.449Z,24.12
2018-05-29T01:58:01.998Z,24.07
2018-05-29T02:00:29.806Z,24.01
2018-05-29T02:02:57.406Z,23.98
2018-05-29T02:05:24.928Z,23.94
2018-05-29T02:07:52.446Z,23.90
2018-05-29T02:10:20.048Z,23.86
2018-05-29T02:12:47.596Z,23.88
2018-05-29T02:15:15.186Z,23.83
2018-05-29T02:17:42.880Z,23.78
2018-05-29T02:20:10.441Z,23.80
2018-05-29T02:22:37.964Z,23.75
2018-05-29T02:25:06.085Z,23.70
2018-05-29T02:27:33.632Z,23.70
2018-05-29T02:30:01.146Z,23.65
2018-05-29T02:32:28.791Z,23.62
2018-05-29T02:34:56.344Z,23.56
2018-05-29T02:37:24.234Z,23.56
2018-05-29T02:39:52.107Z,23.52
2018-05-29T02:42:19.665Z,23.45
2018-05-29T02:44:48.349Z,23.41
2018-05-29T02:47:15.905Z,23.35
2018-05-29T02:49:43.804Z,23.31
2018-05-29T02:52:11.331Z,23.32
2018-05-29T02:54:38.869Z,23.35
2018-05-29T02:57:06.376Z,23.36
2018-05-29T02:59:34.140Z,23.34
2018-05-29T03:02:02.288Z,23.28
2018-05-29T03:04:29.814Z,23.23
2018-05-29T03:06:57.336Z,23.17
2018-05-29T03:09:25.001Z,23.18
2018-05-29T03:11:53.278Z,23.15
2018-05-29T03:14:21.525Z,23.10
2018-05-29T03:16:49.418Z,23.10
2018-05-29T03:19:16.946Z,23.07
2018-05-29T03:21:44.463Z,23.02
2018-05-29T03:24:11.999Z,23.03
2018-05-29T03:26:40.123Z,23.01
2018-05-29T03:29:07.702Z,23.00
2018-05-29T03:31:35.602Z,23.01
2018-05-29T03:34:03.397Z,22.99
2018-05-29T03:36:30.920Z,22.98
2018-05-29T03:38:58.476Z,23.02
2018-05-29T03:41:25.995Z,23.01
2018-05-29T03:43:53.565Z,23.00
2018-05-29T03:46:21.172Z,22.99
2018-05-29T03:48:48.725Z,22.95
2018-05-29T03:51:16.268Z,22.92
2018-05-29T03:53:44.047Z,22.88
2018-05-29T03:56:11.613Z,22.82
2018-05-29T03:58:39.134Z,22.81
2018-05-29T04:01:06.674Z,22.83
2018-05-29T04:03:34.412Z,22.82
2018-05-29T04:06:02.154Z,22.84
2018-05-29T04:08:29.711Z,22.82
2018-05-29T04:10:57.236Z,22.84
2018-05-29T04:13:24.748Z,22.81
2018-05-29T04:15:52.348Z,22.84
2018-05-29T04:18:19.853Z,22.87
2018-05-29T04:20:47.553Z,22.86
2018-05-29T04:23:15.098Z,22.88
2018-05-29T04:25:42.599Z,22.83
2018-05-29T04:28:10.506Z,22.82
2018-05-29T04:30:38.049Z,22.81
2018-05-29T04:33:05.598Z,22.83
2018-05-29T04:35:33.200Z,22.87
2018-05-29T04:38:00.757Z,22.90
2018-05-29T04:40:28.361Z,22.92
2018-05-29T04:42:55.893Z,22.94
2018-05-29T04:45:23.449Z,23.02
2018-05-29T04:47:51.115Z,23.03
2018-05-29T04:50:18.647Z,23.01
2018-05-29T04:52:46.421Z,23.05
2018-05-29T04:55:13.965Z,23.01
2018-05-29T04:57:41.482Z,23.09
2018-05-29T05:00:09.052Z,23.09
2018-05-29T05:02:36.616Z,23.14
2018-05-29T05:05:04.160Z,23.21
2018-05-29T05:07:32.198Z,23.26
2018-05-29T05:09:59.701Z,23.34
2018-05-29T05:12:27.541Z,23.32
2018-05-29T05:14:55.100Z,23.43
2018-05-29T05:17:22.616Z,23.54
2018-05-29T05:19:50.141Z,23.58
2018-05-29T05:22:17.669Z,23.71
2018-05-29T05:24:45.199Z,23.73
2018-05-29T05:27:12.746Z,23.81
2018-05-29T05:29:40.292Z,23.81
2018-05-29T05:32:07.849Z,23.86
2018-05-29T05:34:35.353Z,23.88
2018-05-29T05:37:02.902Z,23.92
2018-05-29T05:39:30.431Z,23.98
2018-05-29T05:41:57.950Z,24.04
2018-05-29T05:44:25.820Z,24.11
2018-05-29T05:46:53.386Z,24.19
2018-05-29T05:49:20.902Z,24.20
2018-05-29T05:51:48.639Z,24.28
2018-05-29T05:54:16.139Z,24.34
2018-05-29T05:56:43.668Z,24.40
2018-05-29T05:59:11.603Z,24.28
2018-05-29T06:01:40.485Z,24.30
2018-05-29T06:04:08.028Z,24.32
2018-05-29T06:06:35.581Z,24.40
2018-05-29T06:09:03.477Z,24.40
2018-05-29T06:11:30.992Z,24.50
2018-05-29T06:13:58.542Z,24.58
2018-05-29T06:16:27.349Z,24.55
2018-05-29T06:18:55.994Z,24.56
2018-05-29T06:21:27.549Z,24.51
2018-05-29T06:23:56.074Z,24.58
2018-05-29T06:26:26.737Z,24.69
2018-05-29T06:28:54.266Z,24.74
2018-05-29T06:31:23.708Z,24.93
2018-05-29T06:33:53.437Z,25.05
2018-05-29T06:36:22.449Z,25.27
2018-05-29T06:38:51.472Z,25.43
2018-05-29T06:41:19.883Z,25.64
2018-05-29T06:43:48.773Z,25.85
2018-05-29T06:46:18.854Z,26.05
2018-05-29T06:48:47.363Z,26.32
2018-05-29T06:51:14.908Z,26.67
2018-05-29T06:53:42.453Z,26.73
2018-05-29T06:56:10.751Z,26.97
2018-05-29T06:58:41.454Z,27.27
2018-05-29T07:01:10.153Z,27.60
2018-05-29T07:03:38.609Z,27.87
2018-05-29T07:06:08.692Z,28.14
2018-05-29T07:08:36.215Z,28.42
2018-05-29T07:11:04.027Z,28.67
2018-05-29T07:13:31.612Z,28.99
2018-05-29T07:15:59.233Z,29.52
2018-05-29T07:18:26.733Z,30.07
2018-05-29T07:20:54.290Z,30.60
2018-05-29T07:23:21.802Z,30.46
2018-05-29T07:25:49.342Z,30.70
2018-05-29T07:28:16.893Z,31.05
2018-05-29T07:30:44.410Z,30.94
2018-05-29T07:33:11.951Z,31.30
2018-05-29T07:35:39.522Z,31.28
2018-05-29T07:38:07.114Z,30.86
2018-05-29T07:40:34.644Z,31.12
2018-05-29T07:43:02.521Z,30.90
2018-05-29T07:45:30.711Z,30.73
2018-05-29T07:47:58.242Z,30.56
2018-05-29T07:50:25.799Z,30.56
2018-05-29T07:52:53.322Z,30.16
2018-05-29T07:55:20.868Z,30.19
2018-05-29T07:57:48.577Z,30.35
2018-05-29T08:00:16.114Z,30.34
2018-05-29T08:02:43.630Z,30.59
2018-05-29T08:05:11.181Z,30.50
2018-05-29T08:07:38.704Z,30.97
2018-05-29T08:10:06.339Z,31.42
2018-05-29T08:12:33.872Z,31.45
2018-05-29T08:15:01.383Z,31.48
2018-05-29T08:17:28.889Z,31.87
2018-05-29T08:19:56.421Z,32.19
2018-05-29T08:22:23.941Z,32.39
2018-05-29T08:24:51.461Z,32.56
2018-05-29T08:27:18.994Z,32.62
2018-05-29T08:29:46.590Z,32.91
2018-05-29T08:32:14.122Z,33.13
2018-05-29T08:34:43.255Z,33.53
2018-05-29T08:37:10.797Z,33.91
2018-05-29T08:39:38.347Z,34.30
2018-05-29T08:42:05.891Z,34.73
2018-05-29T08:44:33.401Z,34.84
2018-05-29T08:47:00.961Z,35.08
2018-05-29T08:49:28.810Z,35.01
2018-05-29T08:51:56.329Z,35.15
2018-05-29T08:54:23.871Z,34.82
2018-05-29T08:56:51.452Z,34.78
2018-05-29T08:59:18.934Z,34.86
2018-05-29T09:01:46.427Z,34.58
2018-05-29T09:04:13.992Z,34.64
2018-05-29T09:06:41.593Z,34.80
2018-05-29T09:09:09.128Z,34.85
2018-05-29T09:11:37.387Z,34.77
2018-05-29T09:14:07.607Z,34.55
2018-05-29T09:16:41.042Z,34.30
2018-05-29T09:19:08.549Z,34.29
2018-05-29T09:21:36.049Z,34.07
2018-05-29T09:24:03.601Z,34.04
2018-05-29T09:26:31.106Z,33.79
2018-05-29T09:28:58.617Z,33.54
2018-05-29T09:31:26.192Z,33.22
2018-05-29T09:33:53.705Z,32.76
2018-05-29T09:36:21.226Z,32.18
2018-05-29T09:38:48.775Z,31.89
2018-05-29T09:41:16.295Z,31.60
2018-05-29T09:43:43.809Z,31.30
2018-05-29T09:46:11.352Z,31.04
2018-05-29T09:48:38.876Z,30.90
2018-05-29T09:51:06.431Z,30.84
2018-05-29T09:53:33.959Z,30.70
2018-05-29T09:56:01.724Z,30.73
2018-05-29T09:58:29.244Z,30.78
2018-05-29T10:00:56.780Z,30.68
2018-05-29T10:03:24.299Z,30.71
2018-05-29T10:05:52.097Z,30.76
2018-05-29T10:08:19.627Z,30.87
2018-05-29T10:10:47.429Z,30.94
2018-05-29T10:13:14.961Z,31.02
2018-05-29T10:15:42.507Z,31.08
2018-05-29T10:18:10.043Z,31.03
2018-05-29T10:20:37.554Z,30.71
2018-05-29T10:23:05.089Z,30.93
2018-05-29T10:25:32.623Z,31.11
2018-05-29T10:28:00.129Z,31.25
2018-05-29T10:30:27.693Z,31.32
2018-05-29T10:32:55.215Z,31.45
2018-05-29T10:35:22.735Z,31.49
2018-05-29T10:37:50.303Z,31.89
2018-05-29T10:40:18.153Z,32.33
2018-05-29T10:42:45.665Z,33.09
2018-05-29T10:45:13.358Z,33.67
2018-05-29T10:47:40.962Z,34.09
2018-05-29T10:50:08.483Z,34.45
2018-05-29T10:52:37.088Z,34.62
2018-05-29T10:55:04.768Z,34.62
2018-05-29T10:57:32.281Z,34.32
2018-05-29T10:59:59.842Z,33.49
2018-05-29T11:02:27.447Z,32.96
2018-05-29T11:04:54.955Z,32.59
2018-05-29T11:07:22.773Z,32.42
2018-05-29T11:09:50.550Z,32.53
2018-05-29T11:12:18.057Z,32.53
2018-05-29T11:14:45.842Z,32.35
2018-05-29T11:17:13.434Z,32.20
2018-05-29T11:19:40.940Z,32.03
2018-05-29T11:22:08.648Z,32.07
2018-05-29T11:24:36.312Z,32.12
2018-05-29T11:27:03.821Z,32.26
2018-05-29T11:29:31.411Z,32.48
2018-05-29T11:31:59.057Z,32.62
2018-05-29T11:34:26.585Z,33.67
2018-05-29T11:36:54.184Z,34.99
2018-05-29T11:39:21.720Z,35.73
2018-05-29T11:41:49.528Z,35.80
2018-05-29T11:44:17.085Z,35.58
2018-05-29T11:46:45.497Z,35.14
2018-05-29T11:49:13.338Z,34.92
2018-05-29T11:51:40.983Z,35.08
2018-05-29T11:54:08.790Z,35.53
2018-05-29T11:56:36.311Z,35.91
2018-05-29T11:59:03.867Z,36.74
2018-05-29T12:01:31.389Z,38.30
2018-05-29T12:03:58.893Z,40.11
2018-05-29T12:06:26.453Z,41.78
2018-05-29T12:08:53.993Z,43.21
2018-05-29T12:11:21.608Z,44.87
2018-05-29T12:13:49.211Z,45.84
2018-05-29T12:16:16.747Z,46.06
2018-05-29T12:18:44.267Z,46.59
2018-05-29T12:21:11.919Z,47.82
2018-05-29T12:23:39.430Z,48.35
2018-05-29T12:26:07.075Z,48.54
2018-05-29T12:28:34.594Z,49.30
2018-05-29T12:31:02.089Z,49.89
2018-05-29T12:33:29.698Z,49.83
2018-05-29T12:35:57.289Z,49.75
2018-05-29T12:38:24.803Z,49.50
2018-05-29T12:40:52.337Z,49.41
2018-05-29T12:43:19.906Z,48.17
2018-05-29T12:45:47.556Z,49.03
2018-05-29T12:48:15.188Z,49.60
2018-05-29T12:50:42.710Z,50.47
2018-05-29T12:53:11.177Z,51.15
2018-05-29T12:55:38.661Z,51.29
2018-05-29T12:58:06.221Z,51.48
2018-05-29T13:00:33.726Z,51.54
2018-05-29T13:03:01.237Z,51.93
2018-05-29T13:05:29.473Z,50.75
2018-05-29T13:07:57.324Z,50.65
2018-05-29T13:10:25.119Z,50.67
2018-05-29T13:12:52.960Z,51.27
2018-05-29T13:15:20.469Z,51.37
2018-05-29T13:17:48.005Z,52.39
2018-05-29T13:20:15.565Z,53.08
2018-05-29T13:22:43.089Z,52.86
2018-05-29T13:25:10.621Z,52.06
2018-05-29T13:27:38.152Z,51.60
2018-05-29T13:30:05.709Z,51.98
2018-05-29T13:32:33.568Z,52.48
2018-05-29T13:35:01.081Z,52.40
2018-05-29T13:37:29.082Z,53.00
2018-05-29T13:39:56.635Z,53.20
2018-05-29T13:42:24.156Z,53.00
2018-05-29T13:44:51.644Z,53.38
2018-05-29T13:47:19.157Z,53.26
2018-05-29T13:49:46.710Z,52.38
2018-05-29T13:52:14.539Z,52.55
2018-05-29T13:54:42.058Z,52.57
2018-05-29T13:57:09.793Z,52.12
2018-05-29T13:59:37.346Z,51.55
2018-05-29T14:02:04.854Z,51.46
2018-05-29T14:04:32.537Z,50.84
2018-05-29T14:07:00.064Z,50.57
2018-05-29T14:09:27.875Z,49.68
2018-05-29T14:11:55.411Z,48.24
2018-05-29T14:14:22.911Z,47.99
2018-05-29T14:16:50.421Z,47.07
2018-05-29T14:19:17.971Z,46.47
2018-05-29T14:21:45.474Z,45.27
2018-05-29T14:24:13.153Z,44.01
2018-05-29T14:26:40.737Z,43.17
2018-05-29T14:29:08.572Z,42.55
2018-05-29T14:31:36.167Z,41.62
2018-05-29T14:34:03.998Z,40.85
2018-05-29T14:36:31.492Z,40.44
2018-05-29T14:38:59.323Z,39.93
2018-05-29T14:41:26.918Z,39.09
2018-05-29T14:43:54.712Z,38.55
2018-05-29T14:46:22.073Z,37.87
2018-05-29T14:48:49.655Z,37.50
2018-05-29T14:51:17.239Z,37.16
2018-05-29T14:53:44.857Z,36.70
2018-05-29T14:56:12.385Z,36.39
2018-05-29T14:58:39.964Z,36.12
2018-05-29T15:01:07.999Z,35.86
2018-05-29T15:03:35.638Z,35.67
2018-05-29T15:06:03.188Z,35.22
2018-05-29T15:08:30.710Z,35.22
2018-05-29T15:10:58.291Z,35.09
2018-05-29T15:13:25.824Z,34.88
2018-05-29T15:15:53.376Z,34.67
2018-05-29T15:18:21.563Z,34.47
2018-05-29T15:20:49.140Z,34.34
2018-05-29T15:23:16.664Z,34.02
2018-05-29T15:25:44.211Z,33.84
2018-05-29T15:28:11.822Z,33.75
2018-05-29T15:30:39.375Z,33.74
2018-05-29T15:33:07.196Z,33.68
2018-05-29T15:35:34.720Z,33.63
2018-05-29T15:38:02.230Z,33.35
2018-05-29T15:40:29.825Z,33.32
2018-05-29T15:42:57.347Z,33.35
2018-05-29T15:45:24.875Z,33.33
2018-05-29T15:47:52.427Z,33.23
2018-05-29T15:50:19.960Z,33.20
2018-05-29T15:52:47.483Z,33.10
2018-05-29T15:55:15.119Z,33.07
2018-05-29T15:57:42.640Z,32.97
2018-05-29T16:00:10.155Z,32.97
2018-05-29T16:02:37.686Z,32.82
2018-05-29T16:05:05.268Z,32.67
2018-05-29T16:07:32.779Z,32.58
2018-05-29T16:10:00.340Z,32.60
2018-05-29T16:12:28.111Z,32.46
2018-05-29T16:14:55.639Z,32.34
2018-05-29T16:17:23.188Z,32.37
2018-05-29T16:19:50.763Z,32.32
2018-05-29T16:22:18.360Z,32.19
2018-05-29T16:24:45.914Z,32.17
2018-05-29T16:27:13.457Z,32.22
2018-05-29T16:29:40.983Z,32.14
2018-05-29T16:32:08.580Z,32.09
2018-05-29T16:34:36.213Z,32.06
2018-05-29T16:37:03.970Z,31.92
2018-05-29T16:39:31.536Z,31.86
2018-05-29T16:41:59.188Z,31.81
2018-05-29T16:44:27.067Z,31.79
2018-05-29T16:46:54.655Z,31.75
2018-05-29T16:49:22.422Z,31.63
2018-05-29T16:51:49.941Z,31.57
2018-05-29T16:54:17.737Z,31.54
2018-05-29T16:56:45.266Z,31.52
2018-05-29T16:59:12.770Z,31.49
2018-05-29T17:01:40.318Z,31.36
2018-05-29T17:04:07.922Z,31.41
2018-05-29T17:06:35.441Z,31.35
2018-05-29T17:09:03.039Z,31.30
2018-05-29T17:11:30.689Z,31.27
2018-05-29T17:13:59.399Z,31.22
2018-05-29T17:16:27.701Z,31.14
2018-05-29T17:18:55.368Z,31.11
2018-05-29T17:21:22.924Z,31.06
2018-05-29T17:23:50.545Z,31.03
2018-05-29T17:26:18.071Z,31.01
2018-05-29T17:28:45.624Z,30.91
2018-05-29T17:31:13.183Z,30.84
2018-05-29T17:33:40.711Z,30.80
2018-05-29T17:36:09.029Z,30.77
2018-05-29T17:38:36.596Z,30.71
2018-05-29T17:41:04.170Z,30.74
2018-05-29T17:43:32.270Z,30.72
2018-05-29T17:45:59.864Z,30.64
2018-05-29T17:48:27.660Z,30.61
2018-05-29T17:50:55.346Z,30.59
2018-05-29T17:53:22.906Z,30.54
2018-05-29T17:55:50.440Z,30.49
2018-05-29T17:58:17.969Z,30.40
2018-05-29T18:00:45.560Z,30.41
2018-05-29T18:03:13.101Z,30.40
2018-05-29T18:05:40.724Z,30.35
2018-05-29T18:08:08.292Z,30.36
2018-05-29T18:10:36.149Z,30.31
2018-05-29T18:13:03.660Z,30.28
2018-05-29T18:15:31.194Z,30.21
2018-05-29T18:17:58.870Z,30.19
2018-05-29T18:20:26.805Z,30.16
2018-05-29T18:22:54.724Z,30.08
2018-05-29T18:25:22.247Z,30.06
2018-05-29T18:27:49.781Z,30.02
2018-05-29T18:30:17.389Z,29.95
2018-05-29T18:32:44.923Z,29.99
2018-05-29T18:35:12.532Z,29.99
2018-05-29T18:37:40.084Z,29.92
2018-05-29T18:40:07.604Z,29.86
2018-05-29T18:42:35.139Z,29.81
2018-05-29T18:45:02.675Z,29.76
2018-05-29T18:47:30.183Z,29.73
2018-05-29T18:49:57.703Z,29.65
2018-05-29T18:52:25.259Z,29.63
2018-05-29T18:54:52.819Z,29.60
2018-05-29T18:57:20.444Z,29.59
2018-05-29T18:59:48.010Z,29.54
2018-05-29T19:02:16.366Z,29.51
2018-05-29T19:04:43.910Z,29.48
2018-05-29T19:07:11.453Z,29.47
2018-05-29T19:09:38.984Z,29.44
2018-05-29T19:12:06.524Z,29.39
2018-05-29T19:14:34.188Z,29.31
2018-05-29T19:17:01.737Z,29.30
2018-05-29T19:19:29.233Z,29.25
2018-05-29T19:21:56.811Z,29.19
2018-05-29T19:24:24.339Z,29.18
2018-05-29T19:26:51.862Z,29.15
2018-05-29T19:29:19.401Z,29.13
2018-05-29T19:31:46.931Z,29.05
2018-05-29T19:34:14.458Z,29.03
2018-05-29T19:36:42.015Z,29.00
2018-05-29T19:39:09.539Z,28.95
2018-05-29T19:41:37.042Z,28.93
2018-05-29T19:44:04.615Z,28.90
2018-05-29T19:46:32.151Z,28.89
2018-05-29T19:48:59.666Z,28.90
2018-05-29T19:51:27.218Z,28.85
2018-05-29T19:53:54.767Z,28.79
2018-05-29T19:56:22.287Z,28.74
2018-05-29T19:58:49.813Z,28.72
2018-05-29T20:01:17.367Z,28.71
2018-05-29T20:03:46.344Z,28.69
2018-05-29T20:06:13.906Z,28.63
2018-05-29T20:08:41.486Z,28.64
2018-05-29T20:11:08.999Z,28.57
2018-05-29T20:13:36.588Z,28.55
2018-05-29T20:16:04.125Z,28.54
2018-05-29T20:18:31.657Z,28.49
2018-05-29T20:20:59.475Z,28.47
2018-05-29T20:23:27.004Z,28.39
2018-05-29T20:25:54.525Z,28.36
2018-05-29T20:28:22.078Z,28.31
2018-05-29T20:30:49.586Z,28.27
2018-05-29T20:33:17.118Z,28.25
2018-05-29T20:35:44.747Z,28.23
2018-05-29T20:38:12.415Z,28.17
2018-05-29T20:40:39.935Z,28.14
2018-05-29T20:43:07.475Z,28.09
2018-05-29T20:45:35.016Z,28.04
2018-05-29T20:48:02.828Z,27.99
2018-05-29T20:50:30.461Z,27.94
2018-05-29T20:52:57.975Z,27.97
2018-05-29T20:55:25.599Z,27.93
2018-05-29T20:57:53.244Z,27.96
2018-05-29T21:00:21.105Z,27.94
2018-05-29T21:02:48.783Z,27.89
2018-05-29T21:05:16.565Z,27.88
2018-05-29T21:07:44.128Z,27.84
2018-05-29T21:10:11.655Z,27.75
2018-05-29T21:12:39.272Z,27.71
2018-05-29T21:15:06.799Z,27.69
2018-05-29T21:17:34.602Z,27.64
2018-05-29T21:20:02.202Z,27.69
2018-05-29T21:22:29.744Z,27.63
2018-05-29T21:24:57.286Z,27.61
2018-05-29T21:27:24.840Z,27.51
2018-05-29T21:29:52.363Z,27.57
2018-05-29T21:32:19.883Z,27.52
2018-05-29T21:34:47.507Z,27.43
2018-05-29T21:37:15.289Z,27.41
2018-05-29T21:39:42.797Z,27.38
2018-05-29T21:42:10.334Z,27.35
2018-05-29T21:44:37.844Z,27.31
2018-05-29T21:47:05.365Z,27.29
2018-05-29T21:49:32.908Z,27.24
2018-05-29T21:52:00.438Z,27.18
2018-05-29T21:54:28.027Z,27.17
2018-05-29T21:56:55.545Z,27.13
2018-05-29T21:59:23.061Z,27.08
2018-05-29T22:01:50.626Z,27.09
2018-05-29T22:04:18.204Z,27.07
2018-05-29T22:06:45.750Z,27.04
2018-05-29T22:09:13.491Z,26.99
2018-05-29T22:11:41.009Z,26.93
2018-05-29T22:14:08.534Z,26.88
2018-05-29T22:16:36.391Z,26.88
2018-05-29T22:19:03.926Z,26.85
2018-05-29T22:21:31.457Z,26.85
2018-05-29T22:23:58.981Z,26.87
2018-05-29T22:26:26.511Z,26.76
2018-05-29T22:28:54.038Z,26.72
2018-05-29T22:31:21.640Z,26.68
2018-05-29T22:33:49.305Z,26.65
2018-05-29T22:36:16.847Z,26.63
2018-05-29T22:38:44.488Z,26.63
2018-05-29T22:41:12.005Z,26.58
2018-05-29T22:43:39.533Z,26.52
2018-05-29T22:46:07.089Z,26.53
2018-05-29T22:48:34.856Z,26.49
2018-05-29T22:51:02.422Z,26.46
2018-05-29T22:53:29.993Z,26.39
2018-05-29T22:55:57.542Z,26.37
2018-05-29T22:58:25.071Z,26.36
2018-05-29T23:00:52.621Z,26.34
2018-05-29T23:03:20.140Z,26.28
2018-05-29T23:05:47.654Z,26.23
2018-05-29T23:08:15.215Z,26.16
2018-05-29T23:10:42.717Z,26.17
2018-05-29T23:13:10.326Z,26.13
2018-05-29T23:15:37.936Z,26.11
2018-05-29T23:18:05.441Z,26.07
2018-05-29T23:20:32.956Z,26.02
2018-05-29T23:23:00.494Z,25.97
2018-05-29T23:25:28.015Z,25.95
2018-05-29T23:27:55.543Z,25.95
2018-05-29T23:30:23.106Z,25.94
2018-05-29T23:32:50.660Z,25.92
2018-05-29T23:35:18.186Z,25.91
2018-05-29T23:37:45.772Z,25.88
2018-05-29T23:40:13.300Z,25.85
2018-05-29T23:42:40.811Z,25.82
2018-05-29T23:45:08.955Z,25.80
2018-05-29T23:47:36.473Z,25.72
2018-05-29T23:50:05.138Z,25.69
2018-05-29T23:52:32.681Z,25.68
2018-05-29T23:55:00.328Z,25.69
2018-05-29T23:57:27.860Z,25.66
2018-05-29T23:59:55.451Z,25.65
